createdAt,value
2023-08-26T00:00:56.050Z,14.20
2023-08-26T00:01:58.538Z,13.52
2023-08-26T00:03:01.232Z,14.10
2023-08-26T00:04:03.915Z,13.60
2023-08-26T00:05:06.568Z,13.73
2023-08-26T00:06:09.021Z,13.90
2023-08-26T00:07:11.350Z,14.20
2023-08-26T00:08:13.657Z,13.82
2023-08-26T00:09:16.342Z,14.27
2023-08-26T00:10:18.750Z,13.85
2023-08-26T00:11:21.158Z,14.25
2023-08-26T00:12:23.486Z,13.40
2023-08-26T00:13:25.772Z,12.40
2023-08-26T00:14:28.083Z,13.32
2023-08-26T00:15:30.580Z,12.60
2023-08-26T00:16:33.144Z,13.43
2023-08-26T00:17:35.724Z,12.73
2023-08-26T00:18:38.232Z,13.45
2023-08-26T00:19:40.568Z,12.90
2023-08-26T00:20:43.049Z,13.95
2023-08-26T00:21:45.279Z,13.00
2023-08-26T00:22:47.643Z,13.32
2023-08-26T00:23:50.496Z,13.85
2023-08-26T00:24:52.872Z,14.52
2023-08-26T00:25:55.248Z,13.30
2023-08-26T00:26:59.680Z,13.23
2023-08-26T00:28:02.087Z,12.82
2023-08-26T00:29:04.588Z,13.23
2023-08-26T00:30:07.575Z,13.35
2023-08-26T00:31:10.060Z,13.55
2023-08-26T00:32:12.494Z,13.90
2023-08-26T00:33:14.837Z,13.75
2023-08-26T00:34:17.196Z,12.77
2023-08-26T00:35:19.595Z,13.90
2023-08-26T00:36:22.177Z,13.65
2023-08-26T00:37:24.460Z,14.80
2023-08-26T00:38:27.026Z,13.82
2023-08-26T00:39:30.047Z,14.05
2023-08-26T00:40:37.059Z,13.50
2023-08-26T00:41:39.534Z,14.45
2023-08-26T00:42:41.856Z,13.18
2023-08-26T00:43:44.276Z,13.98
2023-08-26T00:44:46.606Z,13.52
2023-08-26T00:45:50.683Z,14.00
2023-08-26T00:46:53.120Z,13.95
2023-08-26T00:47:55.797Z,14.68
2023-08-26T00:48:58.782Z,15.75
2023-08-26T00:50:01.115Z,14.05
2023-08-26T00:51:03.698Z,14.95
2023-08-26T00:52:06.666Z,14.88
2023-08-26T00:53:10.064Z,15.00
2023-08-26T00:54:12.620Z,14.20
2023-08-26T00:55:15.449Z,13.43
2023-08-26T00:56:18.029Z,14.70
2023-08-26T00:57:20.433Z,14.32
2023-08-26T00:58:22.868Z,14.00
2023-08-26T00:59:25.434Z,13.65
2023-08-26T01:00:27.832Z,13.90
2023-08-26T01:01:32.917Z,14.40
2023-08-26T01:02:35.820Z,13.60
2023-08-26T01:03:39.575Z,13.75
2023-08-26T01:04:42.192Z,13.90
2023-08-26T01:05:44.990Z,14.18
2023-08-26T01:06:47.973Z,13.80
2023-08-26T01:07:50.544Z,15.38
2023-08-26T01:08:53.711Z,14.13
2023-08-26T01:09:56.158Z,13.90
2023-08-26T01:11:09.626Z,14.15
2023-08-26T01:12:35.225Z,14.63
2023-08-26T01:13:59.691Z,14.23
2023-08-26T01:15:08.290Z,14.18
2023-08-26T01:16:12.622Z,14.40
2023-08-26T01:17:15.399Z,14.07
2023-08-26T01:18:18.263Z,13.73
2023-08-26T01:19:47.260Z,14.50
2023-08-26T01:20:50.051Z,13.18
2023-08-26T01:21:56.460Z,14.85
2023-08-26T01:23:00.911Z,15.07
2023-08-26T01:24:04.359Z,15.82
2023-08-26T01:25:07.150Z,16.02
2023-08-26T01:26:10.418Z,15.77
2023-08-26T01:27:13.075Z,16.42
2023-08-26T01:28:15.421Z,16.15
2023-08-26T01:29:17.704Z,14.40
2023-08-26T01:30:22.815Z,15.13
2023-08-26T01:31:27.776Z,14.73
2023-08-26T01:32:39.823Z,15.13
2023-08-26T01:34:01.955Z,14.80
2023-08-26T01:35:07.055Z,14.65
2023-08-26T01:36:12.016Z,14.20
2023-08-26T01:37:14.900Z,15.73
2023-08-26T01:38:17.703Z,15.70
2023-08-26T01:39:20.964Z,15.90
2023-08-26T01:40:23.769Z,14.38
2023-08-26T01:41:27.297Z,16.38
2023-08-26T01:42:30.228Z,14.90
2023-08-26T01:43:33.608Z,15.57
2023-08-26T01:44:36.344Z,15.30
2023-08-26T01:45:39.240Z,15.00
2023-08-26T01:46:42.124Z,14.95
2023-08-26T01:47:45.795Z,14.98
2023-08-26T01:48:48.057Z,15.27
2023-08-26T01:49:50.326Z,14.90
2023-08-26T01:50:52.705Z,14.70
2023-08-26T01:51:55.160Z,14.80
2023-08-26T01:52:57.569Z,15.10
2023-08-26T01:54:00.057Z,15.63
2023-08-26T01:55:02.675Z,16.10
2023-08-26T01:56:05.195Z,15.00
2023-08-26T01:57:07.822Z,15.02
2023-08-26T01:58:10.195Z,17.35
2023-08-26T01:59:12.690Z,16.83
2023-08-26T02:00:15.590Z,16.15
2023-08-26T02:01:18.026Z,16.13
2023-08-26T02:02:21.303Z,15.45
2023-08-26T02:03:23.780Z,16.27
2023-08-26T02:04:26.208Z,17.88
2023-08-26T02:05:28.535Z,16.58
2023-08-26T02:06:30.916Z,15.95
2023-08-26T02:07:33.246Z,16.63
2023-08-26T02:08:35.624Z,16.27
2023-08-26T02:09:38.486Z,16.77
2023-08-26T02:10:40.842Z,16.38
2023-08-26T02:11:43.154Z,14.93
2023-08-26T02:12:45.527Z,15.95
2023-08-26T02:13:47.932Z,16.02
2023-08-26T02:14:50.260Z,14.82
2023-08-26T02:15:53.037Z,15.05
2023-08-26T02:16:55.388Z,15.52
2023-08-26T02:17:58.951Z,15.75
2023-08-26T02:19:02.393Z,15.63
2023-08-26T02:20:06.659Z,14.43
2023-08-26T02:21:10.311Z,14.65
2023-08-26T02:22:12.828Z,14.52
2023-08-26T02:23:16.250Z,14.93
2023-08-26T02:24:18.607Z,14.93
2023-08-26T02:25:20.999Z,15.10
2023-08-26T02:26:23.468Z,15.90
2023-08-26T02:27:25.905Z,15.35
2023-08-26T02:28:29.148Z,15.80
2023-08-26T02:29:32.191Z,15.30
2023-08-26T02:30:35.436Z,14.90
2023-08-26T02:31:37.945Z,15.27
2023-08-26T02:32:40.291Z,15.52
2023-08-26T02:33:42.878Z,15.50
2023-08-26T02:34:46.447Z,15.60
2023-08-26T02:35:49.963Z,15.07
2023-08-26T02:36:52.387Z,14.90
2023-08-26T02:37:54.937Z,15.10
2023-08-26T02:38:57.483Z,14.48
2023-08-26T02:40:00.070Z,15.15
2023-08-26T02:41:03.487Z,15.70
2023-08-26T02:42:06.138Z,16.08
2023-08-26T02:43:10.127Z,14.65
2023-08-26T02:44:12.557Z,15.35
2023-08-26T02:45:15.016Z,15.18
2023-08-26T02:46:17.496Z,14.75
2023-08-26T02:47:19.906Z,15.43
2023-08-26T02:48:23.459Z,14.63
2023-08-26T02:49:27.413Z,14.95
2023-08-26T02:51:33.954Z,14.23
2023-08-26T02:52:36.330Z,14.38
2023-08-26T02:53:38.674Z,14.65
2023-08-26T02:54:41.021Z,14.68
2023-08-26T02:55:44.552Z,16.77
2023-08-26T02:56:46.872Z,15.02
2023-08-26T02:57:49.256Z,14.93
2023-08-26T02:58:51.614Z,14.43
2023-08-26T02:59:54.360Z,15.18
2023-08-26T03:01:02.572Z,15.15
2023-08-26T03:02:08.428Z,15.32
2023-08-26T03:03:11.113Z,14.82
2023-08-26T03:04:13.742Z,14.57
2023-08-26T03:05:16.266Z,14.68
2023-08-26T03:06:18.638Z,14.45
2023-08-26T03:07:21.081Z,14.60
2023-08-26T03:08:23.384Z,14.88
2023-08-26T03:09:27.227Z,14.73
2023-08-26T03:11:31.858Z,13.82
2023-08-26T03:12:35.886Z,15.10
2023-08-26T03:13:38.295Z,14.23
2023-08-26T03:14:41.635Z,14.95
2023-08-26T03:15:44.048Z,14.45
2023-08-26T03:16:46.533Z,15.05
2023-08-26T03:17:49.330Z,14.88
2023-08-26T03:18:51.780Z,15.15
2023-08-26T03:19:54.016Z,15.27
2023-08-26T03:20:56.301Z,14.75
2023-08-26T03:21:59.426Z,14.65
2023-08-26T03:23:01.655Z,13.93
2023-08-26T03:24:04.276Z,13.80
2023-08-26T03:25:07.363Z,14.30
2023-08-26T03:26:09.921Z,14.60
2023-08-26T03:27:12.260Z,14.35
2023-08-26T03:28:14.592Z,14.60
2023-08-26T03:29:17.227Z,15.45
2023-08-26T03:30:19.824Z,14.75
2023-08-26T03:31:22.548Z,14.88
2023-08-26T03:32:26.314Z,14.85
2023-08-26T03:33:29.623Z,15.55
2023-08-26T03:34:31.979Z,14.73
2023-08-26T03:35:39.462Z,15.00
2023-08-26T03:36:41.815Z,15.73
2023-08-26T03:37:44.133Z,16.70
2023-08-26T03:38:46.538Z,15.07
2023-08-26T03:39:49.698Z,16.25
2023-08-26T03:40:52.069Z,17.45
2023-08-26T03:41:54.448Z,16.13
2023-08-26T03:42:56.938Z,15.43
2023-08-26T03:43:59.504Z,16.27
2023-08-26T03:45:03.583Z,16.17
2023-08-26T03:46:06.433Z,16.27
2023-08-26T03:47:09.019Z,17.52
2023-08-26T03:48:11.303Z,16.23
2023-08-26T03:49:15.590Z,16.63
2023-08-26T03:51:20.421Z,16.23
2023-08-26T03:52:22.763Z,16.65
2023-08-26T03:53:25.747Z,16.15
2023-08-26T03:54:28.206Z,16.73
2023-08-26T03:55:34.100Z,17.58
2023-08-26T03:56:37.948Z,17.70
2023-08-26T03:57:41.073Z,17.52
2023-08-26T03:58:43.521Z,16.90
2023-08-26T03:59:45.973Z,17.67
2023-08-26T04:00:48.415Z,17.17
2023-08-26T04:01:50.645Z,16.38
2023-08-26T04:02:53.051Z,17.13
2023-08-26T04:03:55.876Z,17.95
2023-08-26T04:04:58.365Z,17.50
2023-08-26T04:06:05.202Z,17.70
2023-08-26T04:07:07.523Z,18.25
2023-08-26T04:08:10.034Z,17.33
2023-08-26T04:09:12.796Z,17.00
2023-08-26T04:10:15.216Z,16.92
2023-08-26T04:11:18.964Z,18.60
2023-08-26T04:12:21.348Z,17.70
2023-08-26T04:13:30.040Z,18.40
2023-08-26T04:14:32.423Z,17.15
2023-08-26T04:15:34.793Z,16.45
2023-08-26T04:16:37.222Z,15.95
2023-08-26T04:17:41.619Z,18.15
2023-08-26T04:18:46.823Z,16.90
2023-08-26T04:19:49.475Z,18.10
2023-08-26T04:20:53.697Z,18.17
2023-08-26T04:21:56.014Z,16.42
2023-08-26T04:22:58.419Z,17.15
2023-08-26T04:24:00.669Z,17.60
2023-08-26T04:25:03.054Z,16.55
2023-08-26T04:26:05.682Z,17.02
2023-08-26T04:27:07.971Z,16.73
2023-08-26T04:28:10.877Z,16.40
2023-08-26T04:29:13.485Z,16.98
2023-08-26T04:30:16.032Z,16.73
2023-08-26T04:31:18.380Z,17.35
2023-08-26T04:32:21.123Z,17.23
2023-08-26T04:33:25.430Z,16.77
2023-08-26T04:34:28.134Z,17.05
2023-08-26T04:35:30.490Z,15.70
2023-08-26T04:36:33.007Z,16.63
2023-08-26T04:37:35.451Z,16.45
2023-08-26T04:38:37.823Z,16.02
2023-08-26T04:39:40.286Z,16.55
2023-08-26T04:40:43.258Z,15.68
2023-08-26T04:41:45.593Z,16.10
2023-08-26T04:42:48.658Z,16.63
2023-08-26T04:43:54.282Z,17.25
2023-08-26T04:44:57.047Z,16.42
2023-08-26T04:45:59.602Z,16.55
2023-08-26T04:47:02.206Z,16.13
2023-08-26T04:48:07.055Z,16.73
2023-08-26T04:49:09.451Z,16.17
2023-08-26T04:50:12.846Z,16.65
2023-08-26T04:51:15.301Z,16.98
2023-08-26T04:52:17.846Z,17.35
2023-08-26T04:53:20.289Z,17.77
2023-08-26T04:54:22.800Z,18.02
2023-08-26T04:55:25.148Z,17.42
2023-08-26T04:56:28.391Z,17.13
2023-08-26T04:57:30.792Z,17.50
2023-08-26T04:58:33.148Z,18.55
2023-08-26T04:59:35.726Z,16.52
2023-08-26T05:00:42.590Z,16.52
2023-08-26T05:01:46.248Z,21.05
2023-08-26T05:02:48.587Z,17.48
2023-08-26T05:03:51.008Z,18.27
2023-08-26T05:04:54.879Z,17.58
2023-08-26T05:05:57.440Z,17.75
2023-08-26T05:06:59.840Z,16.90
2023-08-26T05:08:02.173Z,16.70
2023-08-26T05:09:05.527Z,16.35
2023-08-26T05:10:08.771Z,16.95
2023-08-26T05:11:11.403Z,16.73
2023-08-26T05:12:13.856Z,17.80
2023-08-26T05:13:16.365Z,16.35
2023-08-26T05:14:19.086Z,16.80
2023-08-26T05:15:21.492Z,16.88
2023-08-26T05:16:23.862Z,16.55
2023-08-26T05:17:26.347Z,17.23
2023-08-26T05:18:29.150Z,16.95
2023-08-26T05:19:32.395Z,17.17
2023-08-26T05:20:34.991Z,17.73
2023-08-26T05:21:37.535Z,17.90
2023-08-26T05:22:41.859Z,17.40
2023-08-26T05:23:44.728Z,16.98
2023-08-26T05:24:47.323Z,17.50
2023-08-26T05:25:49.731Z,17.63
2023-08-26T05:26:52.074Z,17.52
2023-08-26T05:27:55.324Z,17.63
2023-08-26T05:28:57.996Z,17.10
2023-08-26T05:30:00.451Z,16.95
2023-08-26T05:31:03.460Z,17.23
2023-08-26T05:32:06.099Z,17.73
2023-08-26T05:33:08.663Z,16.35
2023-08-26T05:34:11.268Z,17.92
2023-08-26T05:35:13.758Z,16.73
2023-08-26T05:36:16.412Z,16.55
2023-08-26T05:37:19.933Z,17.40
2023-08-26T05:38:22.507Z,18.17
2023-08-26T05:39:24.992Z,16.10
2023-08-26T05:40:30.668Z,18.10
2023-08-26T05:41:34.138Z,16.58
2023-08-26T05:42:36.539Z,17.70
2023-08-26T05:43:39.027Z,16.02
2023-08-26T05:44:41.505Z,16.42
2023-08-26T05:45:43.901Z,16.95
2023-08-26T05:46:46.366Z,16.52
2023-08-26T05:47:48.828Z,15.95
2023-08-26T05:48:51.475Z,16.92
2023-08-26T05:49:53.916Z,17.00
2023-08-26T05:51:00.106Z,17.75
2023-08-26T05:52:02.414Z,16.48
2023-08-26T05:53:07.464Z,16.75
2023-08-26T05:54:10.871Z,16.42
2023-08-26T05:55:13.545Z,15.52
2023-08-26T05:56:16.886Z,16.15
2023-08-26T05:57:19.925Z,15.10
2023-08-26T05:58:23.586Z,15.73
2023-08-26T05:59:26.028Z,15.75
2023-08-26T06:00:28.459Z,15.23
2023-08-26T06:01:31.396Z,16.27
2023-08-26T06:02:33.903Z,16.50
2023-08-26T06:03:37.543Z,15.45
2023-08-26T06:04:40.123Z,15.75
2023-08-26T06:05:43.490Z,14.93
2023-08-26T06:06:46.558Z,14.98
2023-08-26T06:07:49.502Z,15.32
2023-08-26T06:08:51.844Z,15.90
2023-08-26T06:09:54.206Z,15.38
2023-08-26T06:10:56.970Z,15.85
2023-08-26T06:12:00.117Z,15.95
2023-08-26T06:13:03.257Z,14.60
2023-08-26T06:14:05.773Z,14.95
2023-08-26T06:15:08.674Z,14.60
2023-08-26T06:16:11.978Z,14.00
2023-08-26T06:17:14.514Z,15.30
2023-08-26T06:18:16.833Z,14.13
2023-08-26T06:19:19.224Z,15.55
2023-08-26T06:20:23.884Z,16.00
2023-08-26T06:21:26.486Z,14.57
2023-08-26T06:22:29.195Z,15.13
2023-08-26T06:23:31.887Z,15.90
2023-08-26T06:24:36.345Z,13.75
2023-08-26T06:25:39.160Z,14.65
2023-08-26T06:26:41.472Z,14.80
2023-08-26T06:27:44.345Z,14.30
2023-08-26T06:28:47.636Z,14.43
2023-08-26T06:29:56.702Z,14.20
2023-08-26T06:31:08.069Z,13.65
2023-08-26T06:32:15.956Z,14.82
2023-08-26T06:33:18.388Z,14.25
2023-08-26T06:34:20.801Z,14.48
2023-08-26T06:35:28.185Z,14.40
2023-08-26T06:36:30.835Z,14.38
2023-08-26T06:37:33.061Z,14.43
2023-08-26T06:38:35.555Z,14.52
2023-08-26T06:39:38.944Z,14.35
2023-08-26T06:40:41.421Z,14.52
2023-08-26T06:41:43.835Z,14.93
2023-08-26T06:42:46.167Z,13.85
2023-08-26T06:43:53.365Z,14.80
2023-08-26T06:44:59.859Z,14.02
2023-08-26T06:46:02.400Z,13.77
2023-08-26T06:47:05.458Z,13.77
2023-08-26T06:48:09.232Z,14.25
2023-08-26T06:49:11.933Z,14.25
2023-08-26T06:50:15.453Z,13.73
2023-08-26T06:51:17.871Z,13.63
2023-08-26T06:52:20.285Z,13.75
2023-08-26T06:53:23.846Z,13.98
2023-08-26T06:54:26.498Z,13.35
2023-08-26T06:55:28.910Z,13.57
2023-08-26T06:56:31.229Z,13.75
2023-08-26T06:57:33.750Z,14.27
2023-08-26T06:58:36.084Z,14.00
2023-08-26T06:59:38.460Z,14.13
2023-08-26T07:00:40.824Z,15.02
2023-08-26T07:01:43.214Z,14.52
2023-08-26T07:02:45.727Z,13.13
2023-08-26T07:03:48.180Z,12.95
2023-08-26T07:04:50.546Z,12.98
2023-08-26T07:05:53.004Z,13.43
2023-08-26T07:06:55.318Z,12.80
2023-08-26T07:07:57.923Z,12.77
2023-08-26T07:09:00.876Z,13.20
2023-08-26T07:10:04.350Z,12.25
2023-08-26T07:11:06.768Z,11.95
2023-08-26T07:12:09.258Z,12.45
2023-08-26T07:13:12.308Z,13.07
2023-08-26T07:14:14.828Z,12.85
2023-08-26T07:15:17.975Z,12.50
2023-08-26T07:16:21.020Z,12.70
2023-08-26T07:17:24.114Z,12.85
2023-08-26T07:18:26.481Z,12.68
2023-08-26T07:19:28.904Z,12.32
2023-08-26T07:20:31.502Z,12.10
2023-08-26T07:21:33.863Z,12.38
2023-08-26T07:22:36.254Z,12.40
2023-08-26T07:23:39.502Z,11.82
2023-08-26T07:24:42.550Z,11.73
2023-08-26T07:25:45.055Z,12.00
2023-08-26T07:26:48.088Z,12.52
2023-08-26T07:27:51.294Z,12.13
2023-08-26T07:28:54.621Z,12.48
2023-08-26T07:29:56.909Z,12.25
2023-08-26T07:31:06.820Z,11.90
2023-08-26T07:33:11.409Z,11.77
2023-08-26T07:34:13.931Z,12.35
2023-08-26T07:35:16.419Z,11.45
2023-08-26T07:36:19.025Z,13.02
2023-08-26T07:37:23.024Z,10.85
2023-08-26T07:38:25.376Z,11.65
2023-08-26T07:39:29.917Z,10.40
2023-08-26T07:40:32.665Z,11.00
2023-08-26T07:41:35.074Z,12.10
2023-08-26T07:42:37.392Z,12.20
2023-08-26T07:43:39.951Z,11.48
2023-08-26T07:44:42.982Z,11.73
2023-08-26T07:45:45.491Z,11.73
2023-08-26T07:48:58.680Z,10.90
2023-08-26T07:50:01.372Z,11.55
2023-08-26T07:51:03.721Z,10.25
2023-08-26T07:52:06.410Z,10.45
2023-08-26T07:53:08.834Z,10.23
2023-08-26T07:54:11.479Z,11.18
2023-08-26T07:55:13.902Z,10.90
2023-08-26T07:56:16.318Z,11.35
2023-08-26T07:57:19.025Z,11.23
2023-08-26T07:58:21.587Z,10.93
2023-08-26T07:59:23.920Z,10.35
2023-08-26T08:00:26.344Z,10.27
2023-08-26T08:01:28.781Z,10.45
2023-08-26T08:02:32.705Z,10.65
2023-08-26T08:03:35.388Z,10.10
2023-08-26T08:04:38.063Z,10.35
2023-08-26T08:05:40.401Z,10.40
2023-08-26T08:06:42.878Z,10.38
2023-08-26T08:07:45.226Z,10.55
2023-08-26T08:08:47.568Z,10.65
2023-08-26T08:09:50.087Z,9.90
2023-08-26T08:10:52.494Z,11.88
2023-08-26T08:11:56.844Z,9.93
2023-08-26T08:13:00.506Z,9.38
2023-08-26T08:14:02.899Z,10.20
2023-08-26T08:15:06.181Z,10.50
2023-08-26T08:16:09.792Z,11.50
2023-08-26T08:17:12.230Z,10.02
2023-08-26T08:18:15.369Z,10.57
2023-08-26T08:19:17.759Z,10.60
2023-08-26T08:20:20.926Z,9.85
2023-08-26T08:21:23.376Z,10.07
2023-08-26T08:22:37.782Z,9.65
2023-08-26T08:23:42.425Z,9.52
2023-08-26T08:24:45.321Z,10.23
2023-08-26T08:25:47.625Z,9.60
2023-08-26T08:26:50.008Z,9.88
2023-08-26T08:27:52.558Z,10.65
2023-08-26T08:28:54.897Z,10.10
2023-08-26T08:29:58.459Z,9.88
2023-08-26T08:32:04.028Z,9.85
2023-08-26T08:33:06.433Z,9.55
2023-08-26T08:34:08.898Z,10.10
2023-08-26T08:35:11.230Z,9.57
2023-08-26T08:36:13.708Z,9.52
2023-08-26T08:37:16.271Z,9.57
2023-08-26T08:38:18.554Z,9.80
2023-08-26T08:39:20.829Z,9.82
2023-08-26T08:40:23.651Z,9.98
2023-08-26T08:41:26.115Z,9.15
2023-08-26T08:42:29.088Z,10.02
2023-08-26T08:43:31.648Z,9.38
2023-08-26T08:44:35.759Z,9.43
2023-08-26T08:45:38.137Z,9.52
2023-08-26T08:46:40.825Z,9.15
2023-08-26T08:47:43.639Z,9.38
2023-08-26T08:48:46.110Z,9.05
2023-08-26T08:49:49.506Z,10.68
2023-08-26T08:50:52.400Z,9.20
2023-08-26T08:51:55.428Z,10.27
2023-08-26T08:52:58.393Z,9.52
2023-08-26T08:54:03.693Z,9.55
2023-08-26T08:55:07.289Z,10.57
2023-08-26T08:56:10.621Z,9.52
2023-08-26T08:57:16.533Z,8.93
2023-08-26T08:58:19.277Z,9.60
2023-08-26T08:59:22.184Z,9.20
2023-08-26T09:00:32.941Z,9.60
2023-08-26T09:01:35.623Z,9.45
2023-08-26T09:02:44.474Z,9.68
2023-08-26T09:03:48.344Z,8.90
2023-08-26T09:04:50.827Z,8.80
2023-08-26T09:05:53.652Z,9.45
2023-08-26T09:06:56.153Z,9.43
2023-08-26T09:07:59.168Z,9.25
2023-08-26T09:09:03.500Z,8.60
2023-08-26T09:10:07.285Z,8.70
2023-08-26T09:11:09.630Z,8.55
2023-08-26T09:12:11.982Z,8.45
2023-08-26T09:13:14.464Z,7.82
2023-08-26T09:14:20.969Z,8.05
2023-08-26T09:15:23.947Z,7.90
2023-08-26T09:16:43.052Z,7.15
2023-08-26T09:17:47.720Z,7.85
2023-08-26T09:18:51.818Z,7.60
2023-08-26T09:20:02.184Z,7.80
2023-08-26T09:21:10.082Z,7.20
2023-08-26T09:22:12.444Z,7.80
2023-08-26T09:23:14.967Z,7.72
2023-08-26T09:24:18.780Z,6.97
2023-08-26T09:25:21.191Z,8.75
2023-08-26T09:26:25.658Z,8.05
2023-08-26T09:27:28.458Z,7.55
2023-08-26T09:30:36.791Z,6.20
2023-08-26T09:31:49.944Z,6.80
2023-08-26T09:32:55.099Z,7.03
2023-08-26T09:34:02.543Z,7.10
2023-08-26T09:35:14.441Z,6.40
2023-08-26T09:37:31.725Z,7.40
2023-08-26T09:38:45.572Z,6.50
2023-08-26T09:39:48.089Z,7.10
2023-08-26T09:40:50.522Z,6.57
2023-08-26T09:41:55.928Z,6.63
2023-08-26T09:43:04.964Z,6.88
2023-08-26T09:44:08.564Z,7.20
2023-08-26T09:45:12.079Z,6.55
2023-08-26T09:47:24.439Z,6.82
2023-08-26T09:49:29.228Z,6.53
2023-08-26T09:50:32.864Z,6.75
2023-08-26T09:51:35.889Z,6.60
2023-08-26T09:52:45.077Z,6.05
2023-08-26T09:53:47.436Z,6.22
2023-08-26T09:54:50.401Z,6.82
2023-08-26T09:55:54.204Z,6.43
2023-08-26T09:56:56.596Z,6.85
2023-08-26T09:57:59.605Z,6.90
2023-08-26T09:59:03.300Z,6.53
2023-08-26T10:00:14.265Z,6.43
2023-08-26T10:01:23.593Z,6.70
2023-08-26T10:02:27.174Z,6.00
2023-08-26T10:03:29.861Z,6.13
2023-08-26T10:04:34.968Z,5.93
2023-08-26T10:05:40.445Z,6.28
2023-08-26T10:06:57.012Z,5.68
2023-08-26T10:08:01.128Z,6.15
2023-08-26T10:09:41.497Z,5.38
2023-08-26T10:11:05.143Z,6.32
2023-08-26T10:12:13.251Z,6.22
2023-08-26T10:13:17.473Z,5.95
2023-08-26T10:14:20.221Z,6.43
2023-08-26T10:15:22.798Z,6.25
2023-08-26T10:16:34.946Z,6.13
2023-08-26T10:17:41.428Z,6.13
2023-08-26T10:18:47.990Z,6.50
2023-08-26T10:19:50.589Z,6.43
2023-08-26T10:20:53.228Z,6.38
2023-08-26T10:21:56.246Z,6.00
2023-08-26T10:22:59.196Z,6.35
2023-08-26T10:24:03.169Z,6.13
2023-08-26T10:25:07.195Z,5.97
2023-08-26T10:26:09.731Z,6.35
2023-08-26T10:27:12.074Z,5.55
2023-08-26T10:28:14.474Z,6.15
2023-08-26T10:29:17.954Z,5.95
2023-08-26T10:30:20.500Z,6.13
2023-08-26T10:31:33.628Z,5.78
2023-08-26T10:32:45.981Z,5.65
2023-08-26T10:34:09.549Z,5.22
2023-08-26T10:35:13.817Z,5.93
2023-08-26T10:36:16.194Z,6.10
2023-08-26T10:37:18.677Z,6.07
2023-08-26T10:38:22.615Z,5.60
2023-08-26T10:39:25.527Z,5.55
2023-08-26T10:40:34.195Z,6.25
2023-08-26T10:41:36.545Z,5.90
2023-08-26T10:43:07.804Z,5.60
2023-08-26T10:44:10.205Z,6.38
2023-08-26T10:45:17.023Z,6.13
2023-08-26T10:46:20.175Z,5.65
2023-08-26T10:47:47.088Z,5.60
2023-08-26T10:48:56.739Z,5.68
2023-08-26T10:50:21.831Z,6.93
2023-08-26T10:51:24.544Z,6.47
2023-08-26T10:52:32.105Z,6.28
2023-08-26T10:53:44.583Z,5.88
2023-08-26T10:54:48.107Z,6.22
2023-08-26T10:57:01.087Z,5.40
2023-08-26T10:58:16.205Z,6.32
2023-08-26T10:59:35.239Z,6.05
2023-08-26T11:00:39.163Z,6.40
2023-08-26T11:01:41.734Z,6.40
2023-08-26T11:02:44.434Z,6.00
2023-08-26T11:03:47.418Z,6.13
2023-08-26T11:04:50.330Z,6.07
2023-08-26T11:06:04.141Z,6.47
2023-08-26T11:07:06.474Z,5.95
2023-08-26T11:08:08.957Z,6.68
2023-08-26T11:09:13.524Z,5.88
2023-08-26T11:10:26.918Z,5.97
2023-08-26T11:11:29.264Z,6.25
2023-08-26T11:12:31.802Z,7.00
2023-08-26T11:13:35.024Z,6.30
2023-08-26T11:14:37.374Z,5.57
2023-08-26T11:15:42.365Z,5.72
2023-08-26T11:16:45.882Z,6.15
2023-08-26T11:17:52.292Z,6.53
2023-08-26T11:18:55.371Z,6.28
2023-08-26T11:19:57.915Z,5.97
2023-08-26T11:21:05.479Z,5.95
2023-08-26T11:22:08.515Z,6.13
2023-08-26T11:23:11.254Z,5.97
2023-08-26T11:24:13.642Z,6.38
2023-08-26T11:25:17.073Z,6.13
2023-08-26T11:27:25.104Z,6.18
2023-08-26T11:28:28.661Z,5.47
2023-08-26T11:29:31.352Z,6.22
2023-08-26T11:30:38.007Z,6.20
2023-08-26T11:31:40.639Z,5.80
2023-08-26T11:32:43.321Z,6.03
2023-08-26T11:33:46.978Z,6.30
2023-08-26T11:34:49.444Z,5.93
2023-08-26T11:36:02.808Z,6.45
2023-08-26T11:37:11.304Z,6.32
2023-08-26T11:38:14.358Z,5.68
2023-08-26T11:39:19.924Z,6.47
2023-08-26T11:40:24.466Z,6.03
2023-08-26T11:41:26.770Z,6.43
2023-08-26T11:42:29.233Z,5.78
2023-08-26T11:43:31.755Z,6.05
2023-08-26T11:44:37.994Z,6.72
2023-08-26T11:45:42.164Z,6.28
2023-08-26T11:46:44.625Z,6.55
2023-08-26T11:47:47.147Z,6.15
2023-08-26T11:48:49.602Z,6.60
2023-08-26T11:49:58.702Z,6.13
2023-08-26T11:51:02.125Z,6.47
2023-08-26T11:52:04.724Z,6.47
2023-08-26T11:53:07.456Z,6.82
2023-08-26T11:54:10.843Z,6.45
2023-08-26T11:55:13.370Z,6.45
2023-08-26T11:56:15.821Z,6.35
2023-08-26T11:57:18.543Z,6.47
2023-08-26T11:58:21.371Z,6.38
2023-08-26T11:59:24.351Z,7.30
2023-08-26T12:00:26.750Z,6.25
2023-08-26T12:01:29.220Z,6.55
2023-08-26T12:02:32.018Z,6.63
2023-08-26T12:03:44.557Z,6.03
2023-08-26T12:04:47.879Z,5.68
2023-08-26T12:05:51.378Z,6.13
2023-08-26T12:09:01.111Z,6.28
2023-08-26T12:10:13.093Z,6.50
2023-08-26T12:11:16.580Z,6.10
2023-08-26T12:13:22.495Z,6.30
2023-08-26T12:14:25.057Z,6.38
2023-08-26T12:15:30.680Z,6.07
2023-08-26T12:16:35.233Z,6.85
2023-08-26T12:17:47.298Z,6.50
2023-08-26T12:18:55.538Z,6.25
2023-08-26T12:19:58.546Z,6.45
2023-08-26T12:21:01.076Z,6.20
2023-08-26T12:22:04.758Z,6.22
2023-08-26T12:23:08.569Z,6.22
2023-08-26T12:24:11.226Z,5.80
2023-08-26T12:25:17.944Z,6.03
2023-08-26T12:26:21.449Z,6.60
2023-08-26T12:27:23.776Z,5.88
2023-08-26T12:28:26.686Z,6.70
2023-08-26T12:29:29.085Z,5.63
2023-08-26T12:30:34.916Z,6.07
2023-08-26T12:31:38.130Z,6.80
2023-08-26T12:32:40.677Z,5.97
2023-08-26T12:33:54.301Z,6.47
2023-08-26T12:35:02.317Z,6.60
2023-08-26T12:36:04.888Z,6.10
2023-08-26T12:37:07.328Z,6.45
2023-08-26T12:38:14.199Z,6.38
2023-08-26T12:39:16.820Z,6.00
2023-08-26T12:40:19.327Z,6.60
2023-08-26T12:41:21.949Z,6.13
2023-08-26T12:42:24.444Z,6.20
2023-08-26T12:43:27.790Z,6.00
2023-08-26T12:44:36.906Z,7.22
2023-08-26T12:45:39.455Z,7.40
2023-08-26T12:46:41.793Z,6.65
2023-08-26T12:47:44.467Z,6.38
2023-08-26T12:48:55.035Z,6.32
2023-08-26T12:49:58.736Z,6.00
2023-08-26T12:51:01.054Z,5.75
2023-08-26T12:52:03.516Z,6.15
2023-08-26T12:53:06.014Z,6.47
2023-08-26T12:54:08.613Z,6.43
2023-08-26T12:55:12.881Z,7.07
2023-08-26T12:56:16.207Z,6.47
2023-08-26T12:57:18.778Z,6.68
2023-08-26T12:58:26.201Z,6.05
2023-08-26T12:59:28.607Z,6.72
2023-08-26T13:00:31.021Z,6.72
2023-08-26T13:01:33.519Z,6.05
2023-08-26T13:02:38.144Z,7.03
2023-08-26T13:03:40.770Z,6.40
2023-08-26T13:04:43.325Z,6.78
2023-08-26T13:05:46.630Z,6.28
2023-08-26T13:06:50.693Z,6.28
2023-08-26T13:07:53.097Z,6.05
2023-08-26T13:08:55.465Z,5.65
2023-08-26T13:10:00.172Z,6.28
2023-08-26T13:11:03.987Z,6.05
2023-08-26T13:12:06.804Z,6.18
2023-08-26T13:13:09.277Z,5.75
2023-08-26T13:14:12.420Z,5.80
2023-08-26T13:15:14.911Z,5.95
2023-08-26T13:16:17.381Z,5.60
2023-08-26T13:17:19.888Z,5.50
2023-08-26T13:18:22.276Z,5.97
2023-08-26T13:19:24.724Z,6.30
2023-08-26T13:20:27.152Z,6.22
2023-08-26T13:21:29.596Z,6.30
2023-08-26T13:22:32.193Z,6.30
2023-08-26T13:23:34.599Z,5.90
2023-08-26T13:24:37.832Z,6.72
2023-08-26T13:25:40.325Z,5.50
2023-08-26T13:26:42.743Z,5.50
2023-08-26T13:27:45.087Z,5.97
2023-08-26T13:28:47.666Z,6.10
2023-08-26T13:29:50.404Z,6.07
2023-08-26T13:30:52.842Z,5.78
2023-08-26T13:31:55.362Z,5.93
2023-08-26T13:32:58.276Z,6.47
2023-08-26T13:34:01.066Z,5.88
2023-08-26T13:35:04.664Z,6.03
2023-08-26T13:36:07.155Z,5.82
2023-08-26T13:37:09.522Z,6.50
2023-08-26T13:38:11.955Z,6.63
2023-08-26T13:39:14.875Z,6.25
2023-08-26T13:40:17.342Z,6.57
2023-08-26T13:41:19.881Z,5.97
2023-08-26T13:42:22.291Z,6.07
2023-08-26T13:43:24.676Z,6.25
2023-08-26T13:44:27.173Z,6.40
2023-08-26T13:45:29.922Z,6.80
2023-08-26T13:46:32.569Z,5.90
2023-08-26T13:47:35.051Z,6.03
2023-08-26T13:48:37.453Z,5.68
2023-08-26T13:49:39.925Z,5.85
2023-08-26T13:50:42.270Z,6.07
2023-08-26T13:51:44.640Z,5.93
2023-08-26T13:52:48.452Z,6.25
2023-08-26T13:53:53.153Z,6.20
2023-08-26T13:54:55.473Z,6.13
2023-08-26T13:56:00.584Z,6.68
2023-08-26T13:57:04.040Z,5.93
2023-08-26T13:58:06.620Z,5.88
2023-08-26T13:59:09.073Z,5.50
2023-08-26T14:00:12.833Z,5.90
2023-08-26T14:01:15.352Z,6.00
2023-08-26T14:02:17.907Z,6.05
2023-08-26T14:03:20.468Z,5.88
2023-08-26T14:04:23.909Z,6.05
2023-08-26T14:05:29.435Z,6.57
2023-08-26T14:06:31.842Z,5.88
2023-08-26T14:07:34.819Z,6.18
2023-08-26T14:08:37.230Z,5.97
2023-08-26T14:09:39.578Z,6.50
2023-08-26T14:10:43.026Z,5.88